createdAt,value
2018-08-25T00:00:54.291Z,0.00
2018-08-25T00:01:53.761Z,0.00
2018-08-25T00:02:53.996Z,0.00
2018-08-25T00:03:53.992Z,0.00
2018-08-25T00:04:53.735Z,0.00
2018-08-25T00:05:53.960Z,0.00
2018-08-25T00:06:53.706Z,0.00
2018-08-25T00:07:53.690Z,0.00
2018-08-25T00:08:53.673Z,0.00
2018-08-25T00:09:53.701Z,0.00
2018-08-25T00:10:53.921Z,0.00
2018-08-25T00:11:53.756Z,0.00
2018-08-25T00:12:53.643Z,0.00
2018-08-25T00:13:53.638Z,0.00
2018-08-25T00:14:53.678Z,0.00
2018-08-25T00:15:53.604Z,0.00
2018-08-25T00:16:54.153Z,0.00
2018-08-25T00:17:53.900Z,0.00
2018-08-25T00:18:53.596Z,0.00
2018-08-25T00:19:53.691Z,0.00
2018-08-25T00:20:53.559Z,0.00
2018-08-25T00:21:53.790Z,0.00
2018-08-25T00:22:53.641Z,0.00
2018-08-25T00:23:54.017Z,0.00
2018-08-25T00:24:53.777Z,0.00
2018-08-25T00:25:53.503Z,0.00
2018-08-25T00:26:53.745Z,0.00
2018-08-25T00:27:53.795Z,0.00
2018-08-25T00:28:53.606Z,0.00
2018-08-25T00:29:53.467Z,0.00
2018-08-25T00:30:53.805Z,0.00
2018-08-25T00:31:53.556Z,0.00
2018-08-25T00:32:53.529Z,0.00
2018-08-25T00:33:53.436Z,0.00
2018-08-25T00:34:53.437Z,0.00
2018-08-25T00:35:53.400Z,0.00
2018-08-25T00:36:53.493Z,0.00
2018-08-25T00:37:53.480Z,0.00
2018-08-25T00:38:53.371Z,0.00
2018-08-25T00:39:53.352Z,0.00
2018-08-25T00:40:53.602Z,0.00
2018-08-25T00:41:53.322Z,0.00
2018-08-25T00:42:53.393Z,0.00
2018-08-25T00:43:53.423Z,0.00
2018-08-25T00:44:53.435Z,0.00
2018-08-25T00:45:53.528Z,0.00
2018-08-25T00:46:53.434Z,0.00
2018-08-25T00:47:53.369Z,0.00
2018-08-25T00:48:53.244Z,0.00
2018-08-25T00:49:53.501Z,0.00
2018-08-25T00:50:53.372Z,0.00
2018-08-25T00:51:53.583Z,0.00
2018-08-25T00:52:53.475Z,0.00
2018-08-25T00:53:53.201Z,0.00
2018-08-25T00:54:53.294Z,0.00
2018-08-25T00:55:53.288Z,0.00
2018-08-25T00:56:53.282Z,0.00
2018-08-25T00:57:53.424Z,0.00
2018-08-25T00:58:53.271Z,0.00
2018-08-25T00:59:53.400Z,0.00
2018-08-25T01:00:53.425Z,0.00
2018-08-25T01:01:53.207Z,0.00
2018-08-25T01:02:53.098Z,0.00
2018-08-25T01:03:53.108Z,0.00
2018-08-25T01:04:53.346Z,0.00
2018-08-25T01:05:53.151Z,0.00
2018-08-25T01:06:53.088Z,0.00
2018-08-25T01:07:53.048Z,0.00
2018-08-25T01:08:53.190Z,0.00
2018-08-25T01:09:53.019Z,0.00
2018-08-25T01:10:53.283Z,0.00
2018-08-25T01:11:53.237Z,0.00
2018-08-25T01:12:53.294Z,0.00
2018-08-25T01:13:53.044Z,0.00
2018-08-25T01:14:52.976Z,0.00
2018-08-25T01:15:53.074Z,0.00
2018-08-25T01:16:53.206Z,0.00
2018-08-25T01:17:53.028Z,0.00
2018-08-25T01:18:53.185Z,0.00
2018-08-25T01:19:52.921Z,0.00
2018-08-25T01:20:53.095Z,0.00
2018-08-25T01:21:52.904Z,0.00
2018-08-25T01:22:52.930Z,0.00
2018-08-25T01:23:52.866Z,0.00
2018-08-25T01:24:52.985Z,0.00
2018-08-25T01:25:53.120Z,0.00
2018-08-25T01:26:53.149Z,0.00
2018-08-25T01:27:52.820Z,0.00
2018-08-25T01:28:52.843Z,0.00
2018-08-25T01:29:53.069Z,0.00
2018-08-25T01:30:52.815Z,0.00
2018-08-25T01:31:52.785Z,0.00
2018-08-25T01:32:52.775Z,0.00
2018-08-25T01:33:52.901Z,0.00
2018-08-25T01:34:53.115Z,0.00
2018-08-25T01:35:53.009Z,0.00
2018-08-25T01:36:52.733Z,0.00
2018-08-25T01:37:52.718Z,0.00
2018-08-25T01:38:52.708Z,0.00
2018-08-25T01:39:52.703Z,0.00
2018-08-25T01:40:52.698Z,0.00
2018-08-25T01:41:52.754Z,0.00
2018-08-25T01:42:52.928Z,0.00
2018-08-25T01:43:52.650Z,0.00
2018-08-25T01:44:52.642Z,0.00
2018-08-25T01:45:52.732Z,0.00
2018-08-25T01:46:52.882Z,0.00
2018-08-25T01:47:52.859Z,0.00
2018-08-25T01:48:52.861Z,0.00
2018-08-25T01:49:52.586Z,0.00
2018-08-25T01:50:52.613Z,0.00
2018-08-25T01:51:53.053Z,0.00
2018-08-25T01:52:52.808Z,0.00
2018-08-25T01:53:52.642Z,0.00
2018-08-25T01:54:52.658Z,0.00
2018-08-25T01:55:52.788Z,0.00
2018-08-25T01:56:52.767Z,0.00
2018-08-25T01:57:52.763Z,0.00
2018-08-25T01:58:52.492Z,0.00
2018-08-25T01:59:52.495Z,0.00
2018-08-25T02:00:52.580Z,0.00
2018-08-25T02:01:52.480Z,0.00
2018-08-25T02:02:52.841Z,0.00
2018-08-25T02:03:52.543Z,0.00
2018-08-25T02:04:52.437Z,0.00
2018-08-25T02:05:52.520Z,0.00
2018-08-25T02:06:52.407Z,0.00
2018-08-25T02:07:52.400Z,0.00
2018-08-25T02:08:52.384Z,0.00
2018-08-25T02:09:52.373Z,0.00
2018-08-25T02:10:52.488Z,0.00
2018-08-25T02:11:52.393Z,0.00
2018-08-25T02:12:52.351Z,0.00
2018-08-25T02:13:52.621Z,0.00
2018-08-25T02:14:52.335Z,0.00
2018-08-25T02:15:52.374Z,0.00
2018-08-25T02:16:52.304Z,0.00
2018-08-25T02:17:52.798Z,0.00
2018-08-25T02:18:52.328Z,0.00
2018-08-25T02:19:52.284Z,0.00
2018-08-25T02:20:52.253Z,0.00
2018-08-25T02:21:52.316Z,0.00
2018-08-25T02:22:52.402Z,0.00
2018-08-25T02:23:52.578Z,0.00
2018-08-25T02:24:52.235Z,0.00
2018-08-25T02:25:52.368Z,0.00
2018-08-25T02:26:52.203Z,0.00
2018-08-25T02:27:52.184Z,0.00
2018-08-25T02:28:52.168Z,0.00
2018-08-25T02:29:52.282Z,0.00
2018-08-25T02:30:52.442Z,0.00
2018-08-25T02:31:52.500Z,0.00
2018-08-25T02:32:52.382Z,0.00
2018-08-25T02:33:52.146Z,0.00
2018-08-25T02:34:52.109Z,0.00
2018-08-25T02:35:52.121Z,0.00
2018-08-25T02:36:52.348Z,0.00
2018-08-25T02:37:52.081Z,0.00
2018-08-25T02:38:52.256Z,0.00
2018-08-25T02:39:52.306Z,0.00
2018-08-25T02:40:52.115Z,0.00
2018-08-25T02:41:52.033Z,0.00
2018-08-25T02:42:52.031Z,0.00
2018-08-25T02:43:52.013Z,0.00
2018-08-25T02:44:52.002Z,0.00
2018-08-25T02:45:52.085Z,0.00
2018-08-25T02:46:52.228Z,0.00
2018-08-25T02:47:52.080Z,0.00
2018-08-25T02:48:52.028Z,0.00
2018-08-25T02:49:52.095Z,0.00
2018-08-25T02:50:51.928Z,0.00
2018-08-25T02:51:51.963Z,0.00
2018-08-25T02:52:51.929Z,0.00
2018-08-25T02:53:51.899Z,0.00
2018-08-25T02:54:52.152Z,0.00
2018-08-25T02:55:51.890Z,0.00
2018-08-25T02:56:51.887Z,0.00
2018-08-25T02:57:52.371Z,0.00
2018-08-25T02:58:51.861Z,0.00
2018-08-25T02:59:51.847Z,0.00
2018-08-25T03:00:52.171Z,0.00
2018-08-25T03:01:51.957Z,0.00
2018-08-25T03:02:51.809Z,0.00
2018-08-25T03:03:51.803Z,0.00
2018-08-25T03:04:51.798Z,0.00
2018-08-25T03:05:51.774Z,0.00
2018-08-25T03:06:51.788Z,0.00
2018-08-25T03:07:51.873Z,0.00
2018-08-25T03:08:51.851Z,0.00
2018-08-25T03:09:52.001Z,0.00
2018-08-25T03:10:51.722Z,0.00
2018-08-25T03:11:51.721Z,0.00
2018-08-25T03:12:51.716Z,0.00
2018-08-25T03:13:52.004Z,0.00
2018-08-25T03:14:51.680Z,0.00
2018-08-25T03:15:51.688Z,0.00
2018-08-25T03:16:51.777Z,0.00
2018-08-25T03:17:51.679Z,0.00
2018-08-25T03:18:51.819Z,0.00
2018-08-25T03:19:52.127Z,0.00
2018-08-25T03:20:51.628Z,0.00
2018-08-25T03:21:51.627Z,0.00
2018-08-25T03:22:51.591Z,0.00
2018-08-25T03:23:51.590Z,0.00
2018-08-25T03:24:51.591Z,0.00
2018-08-25T03:25:51.584Z,0.00
2018-08-25T03:26:51.811Z,0.00
2018-08-25T03:27:51.652Z,0.00
2018-08-25T03:28:51.580Z,0.00
2018-08-25T03:29:51.785Z,0.00
2018-08-25T03:30:51.897Z,0.00
2018-08-25T03:31:51.509Z,0.00
2018-08-25T03:32:51.744Z,0.00
2018-08-25T03:33:51.472Z,0.00
2018-08-25T03:34:51.472Z,0.00
2018-08-25T03:35:51.447Z,0.00
2018-08-25T03:36:51.461Z,0.00
2018-08-25T03:37:51.433Z,0.00
2018-08-25T03:38:51.669Z,0.00
2018-08-25T03:39:51.408Z,0.00
2018-08-25T03:40:51.755Z,0.00
2018-08-25T03:41:52.000Z,0.00
2018-08-25T03:42:51.484Z,0.00
2018-08-25T03:43:51.367Z,0.00
2018-08-25T03:44:54.233Z,0.00
2018-08-25T03:45:51.722Z,0.00
2018-08-25T03:46:51.342Z,0.00
2018-08-25T03:47:51.322Z,0.00
2018-08-25T03:48:51.329Z,0.00
2018-08-25T03:49:51.317Z,0.00
2018-08-25T03:50:51.304Z,0.00
2018-08-25T03:51:51.408Z,0.00
2018-08-25T03:52:51.511Z,0.00
2018-08-25T03:53:51.327Z,0.00
2018-08-25T03:54:51.252Z,0.00
2018-08-25T03:55:51.506Z,0.00
2018-08-25T03:56:51.249Z,0.00
2018-08-25T03:57:51.226Z,0.00
2018-08-25T03:58:51.201Z,0.00
2018-08-25T03:59:51.189Z,0.00
2018-08-25T04:00:51.199Z,0.00
2018-08-25T04:01:51.310Z,0.00
2018-08-25T04:02:51.518Z,0.00
2018-08-25T04:03:51.274Z,0.00
2018-08-25T04:04:51.139Z,0.00
2018-08-25T04:05:51.282Z,0.00
2018-08-25T04:06:51.419Z,0.00
2018-08-25T04:07:51.117Z,0.00
2018-08-25T04:08:51.095Z,0.00
2018-08-25T04:09:51.111Z,0.00
2018-08-25T04:10:51.314Z,0.00
2018-08-25T04:11:51.082Z,0.00
2018-08-25T04:12:51.319Z,0.00
2018-08-25T04:13:51.113Z,0.00
2018-08-25T04:14:51.085Z,0.00
2018-08-25T04:15:51.020Z,0.00
2018-08-25T04:16:51.381Z,0.00
2018-08-25T04:17:51.260Z,0.00
2018-08-25T04:18:51.244Z,0.00
2018-08-25T04:19:50.991Z,0.00
2018-08-25T04:20:50.965Z,0.00
2018-08-25T04:21:51.021Z,0.00
2018-08-25T04:22:50.959Z,0.00
2018-08-25T04:23:51.299Z,0.00
2018-08-25T04:24:51.176Z,0.00
2018-08-25T04:25:50.932Z,0.00
2018-08-25T04:26:51.154Z,0.00
2018-08-25T04:27:51.023Z,0.00
2018-08-25T04:28:51.213Z,0.00
2018-08-25T04:29:50.872Z,0.00
2018-08-25T04:30:50.878Z,0.00
2018-08-25T04:31:51.094Z,0.00
2018-08-25T04:32:51.291Z,0.00
2018-08-25T04:33:50.831Z,0.00
2018-08-25T04:34:50.853Z,4.00
2018-08-25T04:35:50.880Z,4.00
2018-08-25T04:36:51.045Z,4.00
2018-08-25T04:37:50.801Z,4.00
2018-08-25T04:38:50.787Z,4.00
2018-08-25T04:39:50.761Z,4.00
2018-08-25T04:40:50.803Z,4.00
2018-08-25T04:41:50.803Z,4.00
2018-08-25T04:42:50.764Z,4.00
2018-08-25T04:43:50.718Z,4.00
2018-08-25T04:44:50.722Z,4.00
2018-08-25T04:45:50.707Z,4.00
2018-08-25T04:46:50.704Z,8.00
2018-08-25T04:47:51.306Z,4.00
2018-08-25T04:48:50.795Z,8.00
2018-08-25T04:49:50.669Z,8.00
2018-08-25T04:50:51.015Z,8.00
2018-08-25T04:51:50.651Z,8.00
2018-08-25T04:52:51.007Z,8.00
2018-08-25T04:53:50.864Z,8.00
2018-08-25T04:54:50.609Z,8.00
2018-08-25T04:55:50.601Z,8.00
2018-08-25T04:56:50.709Z,8.00
2018-08-25T04:57:50.828Z,8.00
2018-08-25T04:58:50.633Z,8.00
2018-08-25T04:59:51.037Z,8.00
2018-08-25T05:00:50.535Z,12.00
2018-08-25T05:01:50.779Z,16.00
2018-08-25T05:02:50.685Z,20.00
2018-08-25T05:03:50.531Z,20.00
2018-08-25T05:04:50.789Z,24.00
2018-08-25T05:05:50.551Z,20.00
2018-08-25T05:06:51.081Z,20.00
2018-08-25T05:07:50.554Z,16.00
2018-08-25T05:08:50.713Z,16.00
2018-08-25T05:09:50.450Z,24.00
2018-08-25T05:10:50.544Z,24.00
2018-08-25T05:11:50.451Z,28.00
2018-08-25T05:12:50.403Z,32.00
2018-08-25T05:13:50.517Z,36.00
2018-08-25T05:14:50.404Z,36.00
2018-08-25T05:15:50.687Z,32.00
2018-08-25T05:16:50.375Z,28.00
2018-08-25T05:17:50.437Z,24.00
2018-08-25T05:18:50.362Z,16.00
2018-08-25T05:19:50.600Z,16.00
2018-08-25T05:20:50.648Z,20.00
2018-08-25T05:21:50.349Z,28.00
2018-08-25T05:22:50.401Z,28.00
2018-08-25T05:23:50.570Z,20.00
2018-08-25T05:24:50.291Z,16.00
2018-08-25T05:25:50.289Z,12.00
2018-08-25T05:26:50.531Z,12.00
2018-08-25T05:27:50.780Z,16.00
2018-08-25T05:28:50.250Z,24.00
2018-08-25T05:29:50.243Z,32.00
2018-08-25T05:30:50.225Z,40.00
2018-08-25T05:31:50.341Z,44.00
2018-08-25T05:32:50.213Z,40.00
2018-08-25T05:33:50.823Z,36.00
2018-08-25T05:34:50.511Z,40.00
2018-08-25T05:35:50.174Z,40.00
2018-08-25T05:36:50.505Z,40.00
2018-08-25T05:37:50.140Z,36.00
2018-08-25T05:38:50.266Z,28.00
2018-08-25T05:39:50.394Z,16.00
2018-08-25T05:40:50.510Z,16.00
2018-08-25T05:41:50.367Z,12.00
2018-08-25T05:42:50.087Z,8.00
2018-08-25T05:43:50.214Z,8.00
2018-08-25T05:44:50.063Z,12.00
2018-08-25T05:45:50.049Z,20.00
2018-08-25T05:46:50.348Z,24.00
2018-08-25T05:47:50.040Z,24.00
2018-08-25T05:48:50.297Z,24.00
2018-08-25T05:49:50.041Z,24.00
2018-08-25T05:50:49.999Z,36.00
2018-08-25T05:51:50.093Z,48.00
2018-08-25T05:52:49.975Z,44.00
2018-08-25T05:53:50.002Z,44.00
2018-08-25T05:54:49.971Z,40.00
2018-08-25T05:55:49.943Z,44.00
2018-08-25T05:56:49.943Z,52.00
2018-08-25T05:57:50.017Z,60.00
2018-08-25T05:58:50.315Z,64.00
2018-08-25T05:59:50.264Z,68.00
2018-08-25T06:00:50.162Z,68.00
2018-08-25T06:01:49.949Z,76.00
2018-08-25T06:02:49.877Z,88.00
2018-08-25T06:03:49.985Z,92.00
2018-08-25T06:04:49.847Z,96.00
2018-08-25T06:05:50.094Z,100.00
2018-08-25T06:06:50.105Z,104.00
2018-08-25T06:07:49.823Z,104.00
2018-08-25T06:08:50.390Z,112.00
2018-08-25T06:09:49.807Z,116.00
2018-08-25T06:10:49.792Z,112.00
2018-08-25T06:11:49.782Z,112.00
2018-08-25T06:12:49.763Z,112.00
2018-08-25T06:13:49.762Z,120.00
2018-08-25T06:14:50.085Z,116.00
2018-08-25T06:15:50.809Z,116.00
2018-08-25T06:16:50.000Z,116.00
2018-08-25T06:17:49.867Z,116.00
2018-08-25T06:18:49.707Z,116.00
2018-08-25T06:19:49.696Z,116.00
2018-08-25T06:20:49.961Z,116.00
2018-08-25T06:21:49.684Z,124.00
2018-08-25T06:22:50.242Z,132.00
2018-08-25T06:23:49.653Z,140.00
2018-08-25T06:24:49.743Z,148.00
2018-08-25T06:25:49.736Z,148.00
2018-08-25T06:26:49.749Z,148.00
2018-08-25T06:27:49.996Z,136.00
2018-08-25T06:28:49.626Z,128.00
2018-08-25T06:29:49.783Z,132.00
2018-08-25T06:30:49.568Z,140.00
2018-08-25T06:31:49.568Z,144.00
2018-08-25T06:32:49.576Z,136.00
2018-08-25T06:33:49.804Z,148.00
2018-08-25T06:34:49.540Z,156.00
2018-08-25T06:35:49.525Z,140.00
2018-08-25T06:36:49.501Z,132.00
2018-08-25T06:37:49.492Z,124.00
2018-08-25T06:38:49.762Z,120.00
2018-08-25T06:39:49.472Z,120.00
2018-08-25T06:40:49.486Z,120.00
2018-08-25T06:41:49.600Z,124.00
2018-08-25T06:42:49.448Z,124.00
2018-08-25T06:43:49.439Z,124.00
2018-08-25T06:44:49.419Z,128.00
2018-08-25T06:45:49.668Z,128.00
2018-08-25T06:46:49.405Z,124.00
2018-08-25T06:47:49.658Z,124.00
2018-08-25T06:48:49.422Z,124.00
2018-08-25T06:49:49.489Z,124.00
2018-08-25T06:50:49.352Z,124.00
2018-08-25T06:51:49.464Z,124.00
2018-08-25T06:52:49.608Z,128.00
2018-08-25T06:53:49.329Z,124.00
2018-08-25T06:54:49.330Z,128.00
2018-08-25T06:55:49.452Z,124.00
2018-08-25T06:56:49.307Z,124.00
2018-08-25T06:57:49.309Z,124.00
2018-08-25T06:58:49.325Z,124.00
2018-08-25T06:59:49.259Z,120.00
2018-08-25T07:00:49.245Z,120.00
2018-08-25T07:01:49.257Z,120.00
2018-08-25T07:02:49.221Z,120.00
2018-08-25T07:03:49.363Z,116.00
2018-08-25T07:04:49.280Z,116.00
2018-08-25T07:05:49.253Z,120.00
2018-08-25T07:06:49.211Z,120.00
2018-08-25T07:07:49.170Z,116.00
2018-08-25T07:08:49.174Z,116.00
2018-08-25T07:09:49.413Z,116.00
2018-08-25T07:10:49.155Z,116.00
2018-08-25T07:11:49.155Z,120.00
2018-08-25T07:12:49.408Z,116.00
2018-08-25T07:13:49.122Z,120.00
2018-08-25T07:14:49.203Z,124.00
2018-08-25T07:15:49.078Z,124.00
2018-08-25T07:16:49.089Z,128.00
2018-08-25T07:17:49.063Z,136.00
2018-08-25T07:18:49.171Z,144.00
2018-08-25T07:19:49.116Z,160.00
2018-08-25T07:20:49.129Z,148.00
2018-08-25T07:21:49.135Z,132.00
2018-08-25T07:22:49.162Z,124.00
2018-08-25T07:23:49.021Z,124.00
2018-08-25T07:24:49.011Z,128.00
2018-08-25T07:25:49.249Z,132.00
2018-08-25T07:26:49.041Z,128.00
2018-08-25T07:27:48.955Z,128.00
2018-08-25T07:28:49.925Z,124.00
2018-08-25T07:29:49.061Z,128.00
2018-08-25T07:30:48.921Z,124.00
2018-08-25T07:31:48.934Z,128.00
2018-08-25T07:32:48.996Z,124.00
2018-08-25T07:33:48.906Z,132.00
2018-08-25T07:34:48.901Z,124.00
2018-08-25T07:35:48.960Z,132.00
2018-08-25T07:36:49.113Z,128.00
2018-08-25T07:37:49.179Z,128.00
2018-08-25T07:38:49.108Z,132.00
2018-08-25T07:39:48.833Z,136.00
2018-08-25T07:40:48.810Z,136.00
2018-08-25T07:41:48.825Z,140.00
2018-08-25T07:42:48.819Z,144.00
2018-08-25T07:43:48.802Z,140.00
2018-08-25T07:44:48.779Z,136.00
2018-08-25T07:45:48.767Z,136.00
2018-08-25T07:46:48.823Z,136.00
2018-08-25T07:47:48.758Z,140.00
2018-08-25T07:48:48.757Z,144.00
2018-08-25T07:49:48.752Z,168.00
2018-08-25T07:50:48.803Z,156.00
2018-08-25T07:51:48.727Z,176.00
2018-08-25T07:52:48.685Z,168.00
2018-08-25T07:53:48.773Z,172.00
2018-08-25T07:54:48.691Z,180.00
2018-08-25T07:55:48.679Z,252.00
2018-08-25T07:56:48.920Z,160.00
2018-08-25T07:57:48.639Z,156.00
2018-08-25T07:58:48.630Z,172.00
2018-08-25T07:59:48.631Z,156.00
2018-08-25T08:00:48.734Z,160.00
2018-08-25T08:01:48.590Z,176.00
2018-08-25T08:02:48.588Z,196.00
2018-08-25T08:03:48.908Z,280.00
2018-08-25T08:04:48.647Z,276.00
2018-08-25T08:05:48.665Z,288.00
2018-08-25T08:06:48.552Z,256.00
2018-08-25T08:07:48.524Z,220.00
2018-08-25T08:08:48.592Z,248.00
2018-08-25T08:09:48.762Z,252.00
2018-08-25T08:10:48.566Z,172.00
2018-08-25T08:11:48.789Z,160.00
2018-08-25T08:12:48.738Z,172.00
2018-08-25T08:13:48.730Z,184.00
2018-08-25T08:14:48.456Z,300.00
2018-08-25T08:15:48.448Z,352.00
2018-08-25T08:16:48.686Z,432.00
2018-08-25T08:17:48.440Z,364.00
2018-08-25T08:18:48.417Z,348.00
2018-08-25T08:19:48.406Z,240.00
2018-08-25T08:20:48.460Z,200.00
2018-08-25T08:21:48.378Z,248.00
2018-08-25T08:22:48.360Z,380.00
2018-08-25T08:23:48.511Z,396.00
2018-08-25T08:24:48.356Z,400.00
2018-08-25T08:25:48.472Z,352.00
2018-08-25T08:26:48.334Z,232.00
2018-08-25T08:27:48.745Z,260.00
2018-08-25T08:28:48.580Z,296.00
2018-08-25T08:29:48.695Z,264.00
2018-08-25T08:30:48.300Z,296.00
2018-08-25T08:31:48.363Z,444.00
2018-08-25T08:32:48.396Z,420.00
2018-08-25T08:33:48.510Z,296.00
2018-08-25T08:34:48.347Z,240.00
2018-08-25T08:35:48.235Z,284.00
2018-08-25T08:36:48.483Z,296.00
2018-08-25T08:37:48.596Z,280.00
2018-08-25T08:38:48.186Z,292.00
2018-08-25T08:39:48.299Z,296.00
2018-08-25T08:40:48.283Z,424.00
2018-08-25T08:41:48.175Z,372.00
2018-08-25T08:42:48.487Z,412.00
2018-08-25T08:43:48.424Z,468.00
2018-08-25T08:44:48.158Z,484.00
2018-08-25T08:45:48.211Z,488.00
2018-08-25T08:46:48.113Z,404.00
2018-08-25T08:47:48.477Z,316.00
2018-08-25T08:48:48.078Z,352.00
2018-08-25T08:49:48.344Z,336.00
2018-08-25T08:50:48.079Z,304.00
2018-08-25T08:51:48.379Z,232.00
2018-08-25T08:52:48.163Z,208.00
2018-08-25T08:53:48.425Z,184.00
2018-08-25T08:54:48.286Z,264.00
2018-08-25T08:55:48.020Z,196.00
2018-08-25T08:56:48.007Z,176.00
2018-08-25T08:57:48.279Z,212.00
2018-08-25T08:58:47.984Z,272.00
2018-08-25T08:59:48.083Z,256.00
2018-08-25T09:00:47.987Z,332.00
2018-08-25T09:01:48.059Z,364.00
2018-08-25T09:02:48.053Z,360.00
2018-08-25T09:03:48.276Z,348.00
2018-08-25T09:04:47.904Z,352.00
2018-08-25T09:05:47.948Z,300.00
2018-08-25T09:06:47.887Z,368.00
2018-08-25T09:07:47.988Z,320.00
2018-08-25T09:08:47.872Z,220.00
2018-08-25T09:09:48.385Z,188.00
2018-08-25T09:10:47.854Z,184.00
2018-08-25T09:11:48.653Z,208.00
2018-08-25T09:12:48.111Z,200.00
2018-08-25T09:13:47.814Z,264.00
2018-08-25T09:14:47.814Z,284.00
2018-08-25T09:15:48.175Z,372.00
2018-08-25T09:16:47.783Z,348.00
2018-08-25T09:17:47.789Z,264.00
2018-08-25T09:18:47.774Z,288.00
2018-08-25T09:19:47.753Z,292.00
2018-08-25T09:20:47.744Z,296.00
2018-08-25T09:21:47.861Z,308.00
2018-08-25T09:22:47.710Z,324.00
2018-08-25T09:23:47.722Z,304.00
2018-08-25T09:24:47.702Z,388.00
2018-08-25T09:25:47.705Z,480.00
2018-08-25T09:26:47.851Z,364.00
2018-08-25T09:27:47.665Z,248.00
2018-08-25T09:28:47.644Z,188.00
2018-08-25T09:29:47.698Z,200.00
2018-08-25T09:30:47.646Z,240.00
2018-08-25T09:31:47.756Z,280.00
2018-08-25T09:32:47.641Z,284.00
2018-08-25T09:33:47.608Z,208.00
2018-08-25T09:34:47.586Z,200.00
2018-08-25T09:35:47.634Z,188.00
2018-08-25T09:36:47.950Z,192.00
2018-08-25T09:37:47.950Z,204.00
2018-08-25T09:38:47.910Z,208.00
2018-08-25T09:39:47.812Z,248.00
2018-08-25T09:40:47.649Z,244.00
2018-08-25T09:41:47.686Z,292.00
2018-08-25T09:42:47.632Z,384.00
2018-08-25T09:43:47.575Z,448.00
2018-08-25T09:44:47.776Z,372.00
2018-08-25T09:45:47.723Z,404.00
2018-08-25T09:46:47.584Z,600.00
2018-08-25T09:47:47.460Z,444.00
2018-08-25T09:48:47.446Z,412.00
2018-08-25T09:49:47.425Z,404.00
2018-08-25T09:50:47.620Z,436.00
2018-08-25T09:51:47.432Z,336.00
2018-08-25T09:52:48.419Z,300.00
2018-08-25T09:53:47.645Z,280.00
2018-08-25T09:54:47.487Z,200.00
2018-08-25T09:55:47.457Z,180.00
2018-08-25T09:56:47.537Z,260.00
2018-08-25T09:57:47.616Z,332.00
2018-08-25T09:58:47.737Z,400.00
2018-08-25T09:59:47.420Z,540.00
2018-08-25T10:00:47.878Z,584.00
2018-08-25T10:01:47.303Z,584.00
2018-08-25T10:02:47.296Z,420.00
2018-08-25T10:03:47.648Z,264.00
2018-08-25T10:04:47.928Z,152.00
2018-08-25T10:05:47.892Z,144.00
2018-08-25T10:06:47.511Z,140.00
2018-08-25T10:07:47.235Z,152.00
2018-08-25T10:08:47.219Z,188.00
2018-08-25T10:09:47.216Z,316.00
2018-08-25T10:10:47.907Z,476.00
2018-08-25T10:11:47.205Z,588.00
2018-08-25T10:12:47.201Z,588.00
2018-08-25T10:13:47.171Z,620.00
2018-08-25T10:14:47.174Z,608.00
2018-08-25T10:15:47.170Z,632.00
2018-08-25T10:16:47.533Z,596.00
2018-08-25T10:17:47.387Z,552.00
2018-08-25T10:18:47.114Z,556.00
2018-08-25T10:19:47.173Z,548.00
2018-08-25T10:20:47.088Z,564.00
2018-08-25T10:21:47.091Z,516.00
2018-08-25T10:22:47.388Z,508.00
2018-08-25T10:23:47.605Z,508.00
2018-08-25T10:24:47.059Z,444.00
2018-08-25T10:25:47.062Z,524.00
2018-08-25T10:26:47.131Z,612.00
2018-08-25T10:27:47.013Z,624.00
2018-08-25T10:28:47.014Z,600.00
2018-08-25T10:29:47.004Z,620.00
2018-08-25T10:30:46.993Z,628.00
2018-08-25T10:31:47.550Z,636.00
2018-08-25T10:32:46.976Z,632.00
2018-08-25T10:33:46.963Z,596.00
2018-08-25T10:34:47.069Z,584.00
2018-08-25T10:35:47.272Z,600.00
2018-08-25T10:36:46.933Z,592.00
2018-08-25T10:37:47.176Z,580.00
2018-08-25T10:38:47.042Z,552.00
2018-08-25T10:39:46.983Z,576.00
2018-08-25T10:40:47.014Z,592.00
2018-08-25T10:41:47.443Z,600.00
2018-08-25T10:42:46.939Z,608.00
2018-08-25T10:43:46.986Z,640.00
2018-08-25T10:44:47.157Z,660.00
2018-08-25T10:45:46.894Z,636.00
2018-08-25T10:46:46.852Z,640.00
2018-08-25T10:47:47.082Z,604.00
2018-08-25T10:48:46.900Z,596.00
2018-08-25T10:49:46.777Z,548.00
2018-08-25T10:50:47.109Z,484.00
2018-08-25T10:51:47.335Z,420.00
2018-08-25T10:52:46.849Z,356.00
2018-08-25T10:53:46.880Z,264.00
2018-08-25T10:54:46.760Z,224.00
2018-08-25T10:55:46.724Z,216.00
2018-08-25T10:56:47.084Z,212.00
2018-08-25T10:57:46.697Z,220.00
2018-08-25T10:58:46.827Z,220.00
2018-08-25T10:59:46.786Z,216.00
2018-08-25T11:00:46.860Z,216.00
2018-08-25T11:01:46.768Z,240.00
2018-08-25T11:02:47.168Z,236.00
2018-08-25T11:03:46.625Z,240.00
2018-08-25T11:04:46.632Z,240.00
2018-08-25T11:05:47.138Z,240.00
2018-08-25T11:06:46.873Z,252.00
2018-08-25T11:07:46.677Z,364.00
2018-08-25T11:08:46.603Z,252.00
2018-08-25T11:09:47.093Z,276.00
2018-08-25T11:10:46.821Z,280.00
2018-08-25T11:11:46.678Z,304.00
2018-08-25T11:12:46.554Z,308.00
2018-08-25T11:13:46.904Z,384.00
2018-08-25T11:14:46.619Z,512.00
2018-08-25T11:15:46.522Z,552.00
2018-08-25T11:16:46.880Z,588.00
2018-08-25T11:17:46.510Z,560.00
2018-08-25T11:18:46.605Z,580.00
2018-08-25T11:19:46.856Z,500.00
2018-08-25T11:20:46.441Z,500.00
2018-08-25T11:21:46.546Z,484.00
2018-08-25T11:22:46.525Z,488.00
2018-08-25T11:23:46.606Z,536.00
2018-08-25T11:24:46.412Z,536.00
2018-08-25T11:25:46.761Z,544.00
2018-08-25T11:26:46.518Z,504.00
2018-08-25T11:27:46.920Z,680.00
2018-08-25T11:28:46.637Z,708.00
2018-08-25T11:29:46.488Z,700.00
2018-08-25T11:30:46.466Z,732.00
2018-08-25T11:31:47.343Z,628.00
2018-08-25T11:32:46.464Z,636.00
2018-08-25T11:33:46.463Z,720.00
2018-08-25T11:34:46.585Z,696.00
2018-08-25T11:35:46.391Z,588.00
2018-08-25T11:36:46.305Z,476.00
2018-08-25T11:37:46.493Z,304.00
2018-08-25T11:38:46.353Z,320.00
2018-08-25T11:39:46.354Z,380.00
2018-08-25T11:40:46.524Z,404.00
2018-08-25T11:41:46.376Z,376.00
2018-08-25T11:42:46.213Z,364.00
2018-08-25T11:43:46.264Z,492.00
2018-08-25T11:44:46.191Z,564.00
2018-08-25T11:45:46.177Z,764.00
2018-08-25T11:46:46.253Z,688.00
2018-08-25T11:47:46.685Z,704.00
2018-08-25T11:48:46.246Z,668.00
2018-08-25T11:49:46.253Z,624.00
2018-08-25T11:50:46.258Z,524.00
2018-08-25T11:51:46.182Z,480.00
2018-08-25T11:52:46.108Z,488.00
2018-08-25T11:53:46.199Z,504.00
2018-08-25T11:54:46.226Z,540.00
2018-08-25T11:55:46.450Z,588.00
2018-08-25T11:56:46.463Z,620.00
2018-08-25T11:57:46.067Z,560.00
2018-08-25T11:58:46.152Z,456.00
2018-08-25T11:59:46.292Z,400.00
2018-08-25T12:00:46.734Z,360.00
2018-08-25T12:01:46.402Z,344.00
2018-08-25T12:02:46.005Z,348.00
2018-08-25T12:03:45.988Z,380.00
2018-08-25T12:04:45.989Z,416.00
2018-08-25T12:05:45.971Z,456.00
2018-08-25T12:06:46.456Z,532.00
2018-08-25T12:07:46.085Z,568.00
2018-08-25T12:08:46.063Z,576.00
2018-08-25T12:09:46.044Z,616.00
2018-08-25T12:10:46.020Z,692.00
2018-08-25T12:11:46.156Z,656.00
2018-08-25T12:12:45.911Z,704.00
2018-08-25T12:13:45.989Z,700.00
2018-08-25T12:14:45.882Z,636.00
2018-08-25T12:15:45.964Z,648.00
2018-08-25T12:16:45.980Z,728.00
2018-08-25T12:17:45.894Z,672.00
2018-08-25T12:18:45.939Z,564.00
2018-08-25T12:19:45.824Z,592.00
2018-08-25T12:20:46.115Z,580.00
2018-08-25T12:21:45.916Z,568.00
2018-08-25T12:22:45.788Z,548.00
2018-08-25T12:23:45.797Z,672.00
2018-08-25T12:24:45.756Z,784.00
2018-08-25T12:25:45.759Z,836.00
2018-08-25T12:26:46.160Z,980.00
2018-08-25T12:27:45.855Z,960.00
2018-08-25T12:28:46.031Z,944.00
2018-08-25T12:29:45.706Z,904.00
2018-08-25T12:30:45.755Z,644.00
2018-08-25T12:31:47.333Z,632.00
2018-08-25T12:32:45.962Z,496.00
2018-08-25T12:33:45.667Z,456.00
2018-08-25T12:34:45.668Z,608.00
2018-08-25T12:35:46.536Z,572.00
2018-08-25T12:36:45.733Z,496.00
2018-08-25T12:37:45.784Z,452.00
2018-08-25T12:38:45.622Z,444.00
2018-08-25T12:39:45.600Z,500.00
2018-08-25T12:40:45.598Z,476.00
2018-08-25T12:41:45.935Z,528.00
2018-08-25T12:42:45.634Z,528.00
2018-08-25T12:43:45.704Z,556.00
2018-08-25T12:44:45.669Z,536.00
2018-08-25T12:45:45.636Z,660.00
2018-08-25T12:46:45.797Z,648.00
2018-08-25T12:47:45.798Z,740.00
2018-08-25T12:48:45.646Z,552.00
2018-08-25T12:49:45.500Z,468.00